createdAt,value
2022-09-23T00:01:20.857Z,100.00
2022-09-23T00:03:49.381Z,100.00
2022-09-23T00:06:20.680Z,100.00
2022-09-23T00:08:52.597Z,100.00
2022-09-23T00:11:27.815Z,100.00
2022-09-23T00:13:57.685Z,100.00
2022-09-23T00:16:32.754Z,100.00
2022-09-23T00:19:02.666Z,100.00
2022-09-23T00:21:30.058Z,100.00
2022-09-23T00:23:57.442Z,100.00
2022-09-23T00:26:24.982Z,99.77
2022-09-23T00:28:52.635Z,99.15
2022-09-23T00:31:22.787Z,99.09
2022-09-23T00:34:01.806Z,99.39
2022-09-23T00:36:30.759Z,100.00
2022-09-23T00:38:58.831Z,100.00
2022-09-23T00:41:26.845Z,100.00
2022-09-23T00:44:00.161Z,100.00
2022-09-23T00:46:37.999Z,100.00
2022-09-23T00:49:09.638Z,100.00
2022-09-23T00:51:43.578Z,100.00
2022-09-23T00:54:11.576Z,100.00
2022-09-23T00:56:40.020Z,100.00
2022-09-23T00:59:09.783Z,100.00
2022-09-23T01:01:37.954Z,100.00
2022-09-23T01:04:06.887Z,100.00
2022-09-23T01:06:34.010Z,100.00
2022-09-23T01:09:01.451Z,100.00
2022-09-23T01:11:38.163Z,100.00
2022-09-23T01:14:32.261Z,100.00
2022-09-23T01:17:11.157Z,100.00
2022-09-23T01:19:47.172Z,100.00
2022-09-23T01:22:32.378Z,100.00
2022-09-23T01:25:24.202Z,100.00
2022-09-23T01:28:00.327Z,100.00
2022-09-23T01:30:36.285Z,100.00
2022-09-23T01:33:24.644Z,100.00
2022-09-23T01:36:09.702Z,100.00
2022-09-23T01:38:43.572Z,100.00
2022-09-23T01:41:55.439Z,100.00
2022-09-23T01:44:31.037Z,100.00
2022-09-23T01:47:14.518Z,100.00
2022-09-23T01:49:57.988Z,100.00
2022-09-23T01:52:32.800Z,100.00
2022-09-23T01:55:12.119Z,100.00
2022-09-23T01:57:55.186Z,100.00
2022-09-23T02:00:23.689Z,100.00
2022-09-23T02:02:59.997Z,100.00
2022-09-23T02:05:52.128Z,100.00
2022-09-23T02:09:00.446Z,100.00
2022-09-23T02:11:28.677Z,100.00
2022-09-23T02:14:08.009Z,100.00
2022-09-23T02:16:40.098Z,100.00
2022-09-23T02:19:27.963Z,100.00
2022-09-23T02:22:08.855Z,100.00
2022-09-23T02:24:38.914Z,100.00
2022-09-23T02:27:15.782Z,100.00
2022-09-23T02:30:11.999Z,100.00
2022-09-23T02:32:54.966Z,100.00
2022-09-23T02:35:29.349Z,100.00
2022-09-23T02:38:26.745Z,100.00
2022-09-23T02:41:20.647Z,100.00
2022-09-23T02:44:14.295Z,100.00
2022-09-23T02:46:44.657Z,100.00
2022-09-23T02:49:23.261Z,100.00
2022-09-23T02:51:51.512Z,100.00
2022-09-23T02:54:22.332Z,100.00
2022-09-23T02:56:49.717Z,100.00
2022-09-23T02:59:19.693Z,100.00
2022-09-23T03:02:14.462Z,100.00
2022-09-23T03:04:44.604Z,100.00
2022-09-23T03:07:21.191Z,100.00
2022-09-23T03:09:48.452Z,100.00
2022-09-23T03:12:31.883Z,100.00
2022-09-23T03:15:12.372Z,100.00
2022-09-23T03:17:49.989Z,100.00
2022-09-23T03:20:31.313Z,100.00
2022-09-23T03:23:09.626Z,100.00
2022-09-23T03:25:43.501Z,100.00
2022-09-23T03:28:12.155Z,100.00
2022-09-23T03:30:40.636Z,100.00
2022-09-23T03:33:12.214Z,100.00
2022-09-23T03:36:01.756Z,100.00
2022-09-23T03:38:35.264Z,100.00
2022-09-23T03:41:04.343Z,100.00
2022-09-23T03:43:35.283Z,100.00
2022-09-23T03:46:08.262Z,99.73
2022-09-23T03:48:35.604Z,96.23
2022-09-23T03:51:17.914Z,96.49
2022-09-23T03:53:44.960Z,97.28
2022-09-23T03:56:12.060Z,96.14
2022-09-23T03:58:39.194Z,93.37
2022-09-23T04:01:06.346Z,92.85
2022-09-23T04:03:33.600Z,93.89
2022-09-23T04:06:01.103Z,94.82
2022-09-23T04:08:28.450Z,94.57
2022-09-23T04:11:01.041Z,96.50
2022-09-23T04:13:29.467Z,98.23
2022-09-23T04:15:56.692Z,99.36
2022-09-23T04:18:25.145Z,99.95
2022-09-23T04:20:56.694Z,99.11
2022-09-23T04:23:25.138Z,98.70
2022-09-23T04:25:52.590Z,100.00
2022-09-23T04:28:20.123Z,99.33
2022-09-23T04:30:49.015Z,100.00
2022-09-23T04:33:17.001Z,100.00
2022-09-23T04:35:44.289Z,100.00
2022-09-23T04:38:12.730Z,100.00
2022-09-23T04:40:40.132Z,100.00
2022-09-23T04:43:10.600Z,100.00
2022-09-23T04:45:40.530Z,100.00
2022-09-23T04:48:09.620Z,100.00
2022-09-23T04:50:37.739Z,100.00
2022-09-23T04:53:05.752Z,100.00
2022-09-23T04:55:32.909Z,100.00
2022-09-23T04:58:00.165Z,100.00
2022-09-23T05:00:28.826Z,100.00
2022-09-23T05:02:56.055Z,100.00
2022-09-23T05:05:24.511Z,100.00
2022-09-23T05:07:51.978Z,100.00
2022-09-23T05:10:19.245Z,100.00
2022-09-23T05:12:46.372Z,100.00
2022-09-23T05:15:16.490Z,100.00
2022-09-23T05:17:43.865Z,100.00
2022-09-23T05:20:11.702Z,100.00
2022-09-23T05:22:38.827Z,100.00
2022-09-23T05:25:06.313Z,100.00
2022-09-23T05:27:33.934Z,99.78
2022-09-23T05:30:01.571Z,98.21
2022-09-23T05:32:31.397Z,95.51
2022-09-23T05:34:58.620Z,92.78
2022-09-23T05:37:25.670Z,90.89
2022-09-23T05:39:52.918Z,90.25
2022-09-23T05:42:21.042Z,90.40
2022-09-23T05:44:48.319Z,91.06
2022-09-23T05:47:15.585Z,90.36
2022-09-23T05:49:58.983Z,91.96
2022-09-23T05:52:27.480Z,93.53
2022-09-23T05:54:54.634Z,94.18
2022-09-23T05:57:22.010Z,94.56
2022-09-23T05:59:49.295Z,94.23
2022-09-23T06:02:16.434Z,92.51
2022-09-23T06:04:44.060Z,91.53
2022-09-23T06:07:11.822Z,91.04
2022-09-23T06:09:39.070Z,90.47
2022-09-23T06:12:06.553Z,89.45
2022-09-23T06:14:33.878Z,88.06
2022-09-23T06:17:01.008Z,88.49
2022-09-23T06:19:28.643Z,90.48
2022-09-23T06:21:55.759Z,91.92
2022-09-23T06:24:25.896Z,92.68
2022-09-23T06:26:55.948Z,92.92
2022-09-23T06:29:23.497Z,91.90
2022-09-23T06:31:50.876Z,89.81
2022-09-23T06:34:18.462Z,88.55
2022-09-23T06:36:46.741Z,86.88
2022-09-23T06:39:15.598Z,85.73
2022-09-23T06:41:43.964Z,84.65
2022-09-23T06:44:15.224Z,83.88
2022-09-23T06:46:42.882Z,84.53
2022-09-23T06:49:13.494Z,83.13
2022-09-23T06:51:41.251Z,83.33
2022-09-23T06:54:08.686Z,83.17
2022-09-23T06:56:39.194Z,82.36
2022-09-23T06:59:10.751Z,81.84
2022-09-23T07:01:38.396Z,81.29
2022-09-23T07:04:07.481Z,80.68
2022-09-23T07:06:35.197Z,79.64
2022-09-23T07:09:03.309Z,80.23
2022-09-23T07:11:30.638Z,79.51
2022-09-23T07:13:57.967Z,78.67
2022-09-23T07:16:25.964Z,77.07
2022-09-23T07:18:53.710Z,78.20
2022-09-23T07:21:20.747Z,76.92
2022-09-23T07:23:52.126Z,76.32
2022-09-23T07:26:22.953Z,75.32
2022-09-23T07:28:59.030Z,75.23
2022-09-23T07:31:36.859Z,74.84
2022-09-23T07:34:08.534Z,74.50
2022-09-23T07:36:37.634Z,75.13
2022-09-23T07:39:05.433Z,74.50
2022-09-23T07:41:34.062Z,74.41
2022-09-23T07:44:03.046Z,74.06
2022-09-23T07:46:32.974Z,74.80
2022-09-23T07:49:02.206Z,74.85
2022-09-23T07:51:36.070Z,74.33
2022-09-23T07:54:10.933Z,74.12
2022-09-23T07:56:38.934Z,73.88
2022-09-23T07:59:09.144Z,74.08
2022-09-23T08:01:41.221Z,73.77
2022-09-23T08:04:18.222Z,74.68
2022-09-23T08:06:48.675Z,73.30
2022-09-23T08:09:18.014Z,72.54
2022-09-23T08:11:45.646Z,73.41
2022-09-23T08:14:14.484Z,73.01
2022-09-23T08:16:42.871Z,72.44
2022-09-23T08:19:10.424Z,71.27
2022-09-23T08:21:39.579Z,70.71
2022-09-23T08:24:08.931Z,69.63
2022-09-23T08:26:36.686Z,69.80
2022-09-23T08:29:05.430Z,70.29
2022-09-23T08:31:32.913Z,69.69
2022-09-23T08:34:00.319Z,70.34
2022-09-23T08:36:27.756Z,69.04
2022-09-23T08:38:55.480Z,69.11
2022-09-23T08:41:49.717Z,68.29
2022-09-23T08:44:25.199Z,67.07
2022-09-23T08:47:13.775Z,65.85
2022-09-23T08:49:50.321Z,65.52
2022-09-23T08:52:36.451Z,64.93
2022-09-23T08:55:05.013Z,65.53
2022-09-23T08:57:42.612Z,66.45
2022-09-23T09:00:29.743Z,65.61
2022-09-23T09:02:57.251Z,66.16
2022-09-23T09:05:27.849Z,66.46
2022-09-23T09:08:00.445Z,66.67
2022-09-23T09:10:38.016Z,67.47
2022-09-23T09:13:25.461Z,67.14
2022-09-23T09:16:48.374Z,65.67
2022-09-23T09:19:40.711Z,65.21
2022-09-23T09:22:13.995Z,65.22
2022-09-23T09:24:45.961Z,65.53
2022-09-23T09:27:13.790Z,64.80
2022-09-23T09:29:49.973Z,64.17
2022-09-23T09:32:30.121Z,65.07
2022-09-23T09:35:05.912Z,64.52
2022-09-23T09:37:47.622Z,64.72
2022-09-23T09:40:21.022Z,65.36
2022-09-23T09:42:50.826Z,65.08
2022-09-23T09:45:40.993Z,64.71
2022-09-23T09:48:39.288Z,65.60
2022-09-23T09:51:30.295Z,65.24
2022-09-23T09:54:23.854Z,64.40
2022-09-23T09:56:52.079Z,64.71
2022-09-23T09:59:29.044Z,64.23
2022-09-23T10:02:21.617Z,63.86
2022-09-23T10:05:19.170Z,63.65
2022-09-23T10:07:46.351Z,61.34
2022-09-23T10:10:32.506Z,61.19
2022-09-23T10:13:16.177Z,61.30
2022-09-23T10:15:45.550Z,60.87
2022-09-23T10:18:20.301Z,62.08
2022-09-23T10:20:48.602Z,61.10
2022-09-23T10:23:26.932Z,60.77
2022-09-23T10:26:00.344Z,61.46
2022-09-23T10:28:33.379Z,61.25
2022-09-23T10:31:05.787Z,62.23
2022-09-23T10:33:33.128Z,60.25
2022-09-23T10:36:00.336Z,60.11
2022-09-23T10:38:27.659Z,59.83
2022-09-23T10:41:15.253Z,60.09
2022-09-23T10:44:28.442Z,61.00
2022-09-23T10:47:56.461Z,61.34
2022-09-23T10:50:46.144Z,62.54
2022-09-23T10:53:32.911Z,62.11
2022-09-23T10:56:18.756Z,61.38
2022-09-23T10:58:59.743Z,60.40
2022-09-23T11:01:59.375Z,60.56
2022-09-23T11:04:45.277Z,59.66
2022-09-23T11:07:14.460Z,58.67
2022-09-23T11:10:42.288Z,58.34
2022-09-23T11:13:32.085Z,59.24
2022-09-23T11:16:11.301Z,59.42
2022-09-23T11:18:44.442Z,58.72
2022-09-23T11:21:39.567Z,58.59
2022-09-23T11:24:48.981Z,59.45
2022-09-23T11:27:28.194Z,59.23
2022-09-23T11:30:13.406Z,59.63
2022-09-23T11:33:04.592Z,59.05
2022-09-23T11:35:46.364Z,57.86
2022-09-23T11:38:36.701Z,56.38
2022-09-23T11:41:28.799Z,54.92
2022-09-23T11:44:19.545Z,54.52
2022-09-23T11:47:03.572Z,54.51
2022-09-23T11:49:40.265Z,54.80
2022-09-23T11:52:20.893Z,53.26
2022-09-23T11:55:17.693Z,52.64
2022-09-23T11:58:22.399Z,52.20
2022-09-23T12:01:01.430Z,50.56
2022-09-23T12:03:49.176Z,50.87
2022-09-23T12:06:36.970Z,50.97
2022-09-23T12:09:54.114Z,50.53
2022-09-23T12:12:49.968Z,50.74
2022-09-23T12:15:50.611Z,48.92
2022-09-23T12:18:36.105Z,49.17
2022-09-23T12:21:46.212Z,50.05
2022-09-23T12:24:35.565Z,49.90
2022-09-23T12:27:09.292Z,49.90
2022-09-23T12:29:39.887Z,50.19
2022-09-23T12:32:10.164Z,54.90
2022-09-23T12:34:49.060Z,60.18
2022-09-23T12:37:34.199Z,64.73
2022-09-23T12:40:44.092Z,67.45
2022-09-23T12:43:29.805Z,83.99
2022-09-23T12:46:28.301Z,87.14
2022-09-23T12:48:57.514Z,90.98
2022-09-23T12:51:26.267Z,91.83
2022-09-23T12:53:54.190Z,93.01
2022-09-23T12:56:45.033Z,94.34
2022-09-23T12:59:29.216Z,93.64
2022-09-23T13:01:57.119Z,85.79
2022-09-23T13:04:53.505Z,86.01
2022-09-23T13:07:27.699Z,85.55
2022-09-23T13:10:38.665Z,81.59
2022-09-23T13:13:07.433Z,79.36
2022-09-23T13:15:36.796Z,77.90
2022-09-23T13:18:19.294Z,78.62
2022-09-23T13:20:52.356Z,74.82
2022-09-23T13:23:26.852Z,73.62
2022-09-23T13:26:09.021Z,71.37
2022-09-23T13:28:55.072Z,68.32
2022-09-23T13:31:22.313Z,65.15
2022-09-23T13:33:54.874Z,65.50
2022-09-23T13:36:22.207Z,66.21
2022-09-23T13:38:49.607Z,64.95
2022-09-23T13:41:26.937Z,65.02
2022-09-23T13:43:58.662Z,64.90
2022-09-23T13:46:31.465Z,62.88
2022-09-23T13:48:59.017Z,57.55
2022-09-23T13:51:33.486Z,57.40
2022-09-23T13:54:03.088Z,55.81
2022-09-23T13:56:33.080Z,57.34
2022-09-23T13:59:19.223Z,57.19
2022-09-23T14:01:47.282Z,56.93
2022-09-23T14:04:25.609Z,57.50
2022-09-23T14:06:54.561Z,56.32
2022-09-23T14:09:27.522Z,57.02
2022-09-23T14:12:00.004Z,57.88
2022-09-23T14:14:29.779Z,57.56
2022-09-23T14:16:58.144Z,57.29
2022-09-23T14:19:26.569Z,56.69
2022-09-23T14:21:56.378Z,57.46
2022-09-23T14:24:30.411Z,56.87
2022-09-23T14:27:06.778Z,57.53
2022-09-23T14:29:43.695Z,57.59
2022-09-23T14:32:26.994Z,57.63
2022-09-23T14:35:00.357Z,57.70
2022-09-23T14:37:52.043Z,58.37
2022-09-23T14:40:20.723Z,58.53
2022-09-23T14:42:55.859Z,57.60
2022-09-23T14:45:26.564Z,59.30
2022-09-23T14:48:24.266Z,59.59
2022-09-23T14:50:56.868Z,60.44
2022-09-23T14:53:32.627Z,60.43
2022-09-23T14:56:10.969Z,60.96
2022-09-23T14:58:57.351Z,61.60
2022-09-23T15:01:39.215Z,61.46
2022-09-23T15:04:15.726Z,61.89
2022-09-23T15:06:56.671Z,61.86
2022-09-23T15:09:31.569Z,62.37
2022-09-23T15:12:03.244Z,63.36
2022-09-23T15:14:38.776Z,63.34
2022-09-23T15:17:17.178Z,63.39
2022-09-23T15:19:46.550Z,63.72
2022-09-23T15:22:16.726Z,64.13
2022-09-23T15:24:45.547Z,64.65
2022-09-23T15:27:30.567Z,64.57
2022-09-23T15:30:19.769Z,65.17
2022-09-23T15:32:47.470Z,65.48
2022-09-23T15:35:18.894Z,65.99
2022-09-23T15:37:47.060Z,66.41
2022-09-23T15:40:23.187Z,66.46
2022-09-23T15:42:52.784Z,66.81
2022-09-23T15:45:26.430Z,67.59
2022-09-23T15:47:53.880Z,68.25
2022-09-23T15:50:21.035Z,69.00
2022-09-23T15:52:48.317Z,69.40
2022-09-23T15:55:18.341Z,70.47
2022-09-23T15:57:45.481Z,70.78
2022-09-23T16:00:13.619Z,71.56
2022-09-23T16:02:43.323Z,72.09
2022-09-23T16:05:22.309Z,72.75
2022-09-23T16:07:52.463Z,73.54
2022-09-23T16:10:21.570Z,74.16
2022-09-23T16:12:49.806Z,74.53
2022-09-23T16:15:19.598Z,75.64
2022-09-23T16:17:46.912Z,75.63
2022-09-23T16:20:17.963Z,75.20
2022-09-23T16:22:54.737Z,74.98
2022-09-23T16:25:28.279Z,74.65
2022-09-23T16:27:56.647Z,75.10
2022-09-23T16:30:26.153Z,75.48
2022-09-23T16:32:53.819Z,76.12
2022-09-23T16:35:22.931Z,75.69
2022-09-23T16:37:51.258Z,75.09
2022-09-23T16:40:29.465Z,74.95
2022-09-23T16:42:58.520Z,75.19
2022-09-23T16:45:25.757Z,76.05
2022-09-23T16:47:53.109Z,76.93
2022-09-23T16:50:25.078Z,77.15
2022-09-23T16:52:56.241Z,77.43
2022-09-23T16:55:25.813Z,77.21
2022-09-23T16:57:54.092Z,76.64
2022-09-23T17:00:40.088Z,76.68
2022-09-23T17:03:25.808Z,76.71
2022-09-23T17:05:54.508Z,76.73
2022-09-23T17:08:21.788Z,76.86
2022-09-23T17:10:57.152Z,77.31
2022-09-23T17:13:29.216Z,77.62
2022-09-23T17:15:57.782Z,77.62
2022-09-23T17:18:25.433Z,78.14
2022-09-23T17:21:10.995Z,78.88
2022-09-23T17:23:38.320Z,79.47
2022-09-23T17:26:09.831Z,79.10
2022-09-23T17:28:38.322Z,79.38
2022-09-23T17:31:06.564Z,79.09
2022-09-23T17:33:37.783Z,79.09
2022-09-23T17:36:13.257Z,80.16
2022-09-23T17:38:43.378Z,81.20
2022-09-23T17:41:11.881Z,82.13
2022-09-23T17:43:39.852Z,80.89
2022-09-23T17:46:12.932Z,81.24
2022-09-23T17:48:42.255Z,81.68
2022-09-23T17:51:19.932Z,81.69
2022-09-23T17:53:48.581Z,82.28
2022-09-23T17:56:26.957Z,82.97
2022-09-23T17:58:54.714Z,83.69
2022-09-23T18:01:26.830Z,83.65
2022-09-23T18:03:59.576Z,84.17
2022-09-23T18:06:28.939Z,84.85
2022-09-23T18:08:56.190Z,85.55
2022-09-23T18:11:26.092Z,84.82
2022-09-23T18:13:55.594Z,84.63
2022-09-23T18:16:25.778Z,84.98
2022-09-23T18:18:54.904Z,84.25
2022-09-23T18:21:23.124Z,84.64
2022-09-23T18:23:51.431Z,85.33
2022-09-23T18:26:24.387Z,85.09
2022-09-23T18:28:53.747Z,85.25
2022-09-23T18:31:20.991Z,85.24
2022-09-23T18:33:51.940Z,85.06
2022-09-23T18:36:23.531Z,85.53
2022-09-23T18:38:51.467Z,85.78
2022-09-23T18:41:19.141Z,85.91
2022-09-23T18:43:48.712Z,86.34
2022-09-23T18:46:18.783Z,86.44
2022-09-23T18:49:21.651Z,87.03
2022-09-23T18:51:55.783Z,87.47
2022-09-23T18:54:32.562Z,88.15
2022-09-23T18:57:00.224Z,88.69
2022-09-23T18:59:29.826Z,89.02
2022-09-23T19:01:57.702Z,89.32
2022-09-23T19:04:26.541Z,89.13
2022-09-23T19:06:56.674Z,88.57
2022-09-23T19:09:25.198Z,88.81
2022-09-23T19:11:53.470Z,88.93
2022-09-23T19:14:22.402Z,88.98
2022-09-23T19:16:50.598Z,89.17
2022-09-23T19:19:17.789Z,90.29
2022-09-23T19:21:45.911Z,90.79
2022-09-23T19:24:20.165Z,90.90
2022-09-23T19:26:48.566Z,90.76
2022-09-23T19:29:19.891Z,91.76
2022-09-23T19:31:47.091Z,92.43
2022-09-23T19:34:23.131Z,93.37
2022-09-23T19:36:51.559Z,93.78
2022-09-23T19:39:22.884Z,94.43
2022-09-23T19:41:55.884Z,94.29
2022-09-23T19:44:26.745Z,93.56
2022-09-23T19:46:57.079Z,93.80
2022-09-23T19:49:25.441Z,93.39
2022-09-23T19:51:55.688Z,93.27
2022-09-23T19:54:26.622Z,93.80
2022-09-23T19:56:53.994Z,93.74
2022-09-23T19:59:21.168Z,94.37
2022-09-23T20:01:48.553Z,94.81
2022-09-23T20:04:16.337Z,94.13
2022-09-23T20:06:43.727Z,93.49
2022-09-23T20:09:10.856Z,92.99
2022-09-23T20:11:38.121Z,93.01
2022-09-23T20:14:06.601Z,93.17
2022-09-23T20:16:35.947Z,93.38
2022-09-23T20:19:04.412Z,93.61
2022-09-23T20:21:33.661Z,93.81
2022-09-23T20:24:02.079Z,94.17
2022-09-23T20:26:47.716Z,93.90
2022-09-23T20:29:15.596Z,94.10
2022-09-23T20:31:43.084Z,94.78
2022-09-23T20:34:11.224Z,95.61
2022-09-23T20:36:41.011Z,95.54
2022-09-23T20:39:10.168Z,96.24
2022-09-23T20:41:39.344Z,96.06
2022-09-23T20:44:12.787Z,96.49
2022-09-23T20:46:47.917Z,97.25
2022-09-23T20:49:19.725Z,97.03
2022-09-23T20:51:50.830Z,96.93
2022-09-23T20:54:21.005Z,96.37
2022-09-23T20:56:48.352Z,96.06
2022-09-23T20:59:17.953Z,96.35
2022-09-23T21:01:45.472Z,95.68
2022-09-23T21:04:12.786Z,95.46
2022-09-23T21:06:40.155Z,94.12
2022-09-23T21:09:07.306Z,94.50
2022-09-23T21:11:34.827Z,95.11
2022-09-23T21:14:02.169Z,95.49
2022-09-23T21:16:29.957Z,95.15
2022-09-23T21:18:58.242Z,95.00
2022-09-23T21:21:25.799Z,94.91
2022-09-23T21:23:52.928Z,95.36
2022-09-23T21:26:23.324Z,95.68
2022-09-23T21:28:53.073Z,95.26
2022-09-23T21:31:26.162Z,94.50
2022-09-23T21:34:04.368Z,94.97
2022-09-23T21:36:34.662Z,95.14
2022-09-23T21:39:03.148Z,95.03
2022-09-23T21:41:31.131Z,95.58
2022-09-23T21:43:59.408Z,95.46
2022-09-23T21:46:28.324Z,95.09
2022-09-23T21:48:57.514Z,95.54
2022-09-23T21:51:27.122Z,95.72
2022-09-23T21:53:56.886Z,96.06
2022-09-23T21:56:27.298Z,95.63
2022-09-23T21:58:55.670Z,96.48
2022-09-23T22:01:29.017Z,96.72
2022-09-23T22:03:58.357Z,97.00
2022-09-23T22:06:27.655Z,96.82
2022-09-23T22:09:02.037Z,97.58
2022-09-23T22:11:51.626Z,98.44
2022-09-23T22:14:20.478Z,98.92
2022-09-23T22:16:47.646Z,98.88
2022-09-23T22:19:15.731Z,99.52
2022-09-23T22:21:45.170Z,98.80
2022-09-23T22:24:13.316Z,98.41
2022-09-23T22:26:44.872Z,98.74
2022-09-23T22:29:32.724Z,98.31
2022-09-23T22:32:20.289Z,98.48
2022-09-23T22:34:51.173Z,98.06
2022-09-23T22:37:21.822Z,98.76
2022-09-23T22:39:49.016Z,98.99
2022-09-23T22:42:16.373Z,99.15
2022-09-23T22:44:43.558Z,99.05
2022-09-23T22:47:11.008Z,99.25
2022-09-23T22:49:38.239Z,98.88
2022-09-23T22:52:08.461Z,98.29
2022-09-23T22:54:36.039Z,98.21
2022-09-23T22:57:07.853Z,98.86
2022-09-23T22:59:35.930Z,98.99
2022-09-23T23:02:03.705Z,98.98
2022-09-23T23:04:31.094Z,98.68
2022-09-23T23:06:59.023Z,98.91
2022-09-23T23:09:26.506Z,99.12
2022-09-23T23:11:53.725Z,99.64
2022-09-23T23:14:21.452Z,99.50
2022-09-23T23:16:48.700Z,99.35
2022-09-23T23:19:17.720Z,98.46
2022-09-23T23:21:45.663Z,99.09
2022-09-23T23:24:21.883Z,99.67
2022-09-23T23:26:50.289Z,99.86
2022-09-23T23:29:19.256Z,100.00
2022-09-23T23:31:46.930Z,100.00
2022-09-23T23:34:17.269Z,100.00
2022-09-23T23:36:45.929Z,100.00
2022-09-23T23:39:13.802Z,100.00
2022-09-23T23:41:41.766Z,100.00
2022-09-23T23:44:09.488Z,100.00
2022-09-23T23:46:37.491Z,100.00
2022-09-23T23:49:05.093Z,99.77
2022-09-23T23:51:32.393Z,99.53
2022-09-23T23:53:59.913Z,99.09
2022-09-23T23:56:27.759Z,98.81
2022-09-23T23:58:56.878Z,98.22
